sensor_id;sensor_type;location;lat;lon;timestamp;P1;durP1;ratioP1;P2;durP2;ratioP2
24743;SDS011;12844;52.110;5.548;2022-10-16T09:41:52;2.28;;;0.93;;
24743;SDS011;12844;52.110;5.548;2022-10-16T09:44:26;2.05;;;1.05;;
24743;SDS011;12844;52.110;5.548;2022-10-16T09:47:04;2.00;;;1.00;;
24743;SDS011;12844;52.110;5.548;2022-10-16T09:49:53;2.10;;;1.20;;
24743;SDS011;12844;52.110;5.548;2022-10-16T09:52:26;1.83;;;0.73;;
24743;SDS011;12844;52.110;5.548;2022-10-16T09:54:53;2.15;;;0.75;;
24743;SDS011;12844;52.110;5.548;2022-10-16T09:57:21;2.15;;;0.98;;
24743;SDS011;12844;52.110;5.548;2022-10-16T09:59:53;2.10;;;1.00;;
24743;SDS011;12844;52.110;5.548;2022-10-16T10:02:28;1.23;;;0.90;;
24743;SDS011;12844;52.110;5.548;2022-10-16T10:04:55;1.67;;;0.90;;
24743;SDS011;12844;52.110;5.548;2022-10-16T10:07:26;2.17;;;0.95;;
24743;SDS011;12844;52.110;5.548;2022-10-16T10:09:53;2.42;;;0.80;;
24743;SDS011;12844;52.110;5.548;2022-10-16T10:12:28;1.60;;;0.70;;
24743;SDS011;12844;52.110;5.548;2022-10-16T10:14:57;1.50;;;0.80;;
24743;SDS011;12844;52.110;5.548;2022-10-16T10:17:28;1.90;;;0.90;;
24743;SDS011;12844;52.110;5.548;2022-10-16T10:22:48;2.47;;;1.20;;
24743;SDS011;12844;52.110;5.548;2022-10-16T10:38:53;1.27;;;0.80;;
24743;SDS011;12844;52.110;5.548;2022-10-16T10:44:14;2.08;;;0.80;;
24743;SDS011;12844;52.110;5.548;2022-10-16T10:52:20;1.20;;;0.80;;
24743;SDS011;12844;52.110;5.548;2022-10-16T10:57:41;1.38;;;0.80;;
24743;SDS011;12844;52.110;5.548;2022-10-16T11:00:26;1.55;;;0.55;;
24743;SDS011;12844;52.110;5.548;2022-10-16T11:05:44;1.52;;;0.75;;
24743;SDS011;12844;52.110;5.548;2022-10-16T11:08:23;2.00;;;0.88;;
24743;SDS011;12844;52.110;5.548;2022-10-16T11:11:03;1.15;;;0.63;;
24743;SDS011;12844;52.110;5.548;2022-10-16T11:13:38;1.45;;;0.70;;
24743;SDS011;12844;52.110;5.548;2022-10-16T11:16:17;2.83;;;0.95;;
24743;SDS011;12844;52.110;5.548;2022-10-16T11:21:23;1.38;;;0.85;;
24743;SDS011;12844;52.110;5.548;2022-10-16T11:23:57;2.13;;;0.95;;
24743;SDS011;12844;52.110;5.548;2022-10-16T11:26:29;2.45;;;1.02;;
24743;SDS011;12844;52.110;5.548;2022-10-16T11:28:59;2.93;;;1.17;;
24743;SDS011;12844;52.110;5.548;2022-10-16T11:31:34;2.28;;;0.80;;
24743;SDS011;12844;52.110;5.548;2022-10-16T11:34:22;1.52;;;0.90;;
24743;SDS011;12844;52.110;5.548;2022-10-16T11:37:08;1.30;;;0.60;;
24743;SDS011;12844;52.110;5.548;2022-10-16T11:39:48;1.73;;;0.97;;
24743;SDS011;12844;52.110;5.548;2022-10-16T11:42:21;1.63;;;0.70;;
24743;SDS011;12844;52.110;5.548;2022-10-16T11:48:00;0.80;;;0.50;;
24743;SDS011;12844;52.110;5.548;2022-10-16T11:56:17;2.40;;;0.73;;
24743;SDS011;12844;52.110;5.548;2022-10-16T12:01:33;1.55;;;0.80;;
24743;SDS011;12844;52.110;5.548;2022-10-16T12:07:11;1.98;;;0.82;;
24743;SDS011;12844;52.110;5.548;2022-10-16T12:09:40;1.88;;;0.80;;
24743;SDS011;12844;52.110;5.548;2022-10-16T12:17:50;1.42;;;0.65;;
24743;SDS011;12844;52.110;5.548;2022-10-16T12:22:48;1.23;;;0.57;;
24743;SDS011;12844;52.110;5.548;2022-10-16T12:25:22;1.23;;;0.70;;
24743;SDS011;12844;52.110;5.548;2022-10-16T12:27:56;2.75;;;0.70;;
24743;SDS011;12844;52.110;5.548;2022-10-16T12:30:28;1.45;;;0.80;;
24743;SDS011;12844;52.110;5.548;2022-10-16T12:33:00;1.83;;;0.90;;
24743;SDS011;12844;52.110;5.548;2022-10-16T12:35:32;2.08;;;0.63;;
24743;SDS011;12844;52.110;5.548;2022-10-16T12:38:08;1.30;;;0.73;;
24743;SDS011;12844;52.110;5.548;2022-10-16T12:41:03;1.58;;;0.80;;
24743;SDS011;12844;52.110;5.548;2022-10-16T12:46:26;1.35;;;0.70;;
24743;SDS011;12844;52.110;5.548;2022-10-16T12:49:04;1.38;;;0.50;;
24743;SDS011;12844;52.110;5.548;2022-10-16T12:56:40;1.67;;;0.90;;
24743;SDS011;12844;52.110;5.548;2022-10-16T12:59:28;1.60;;;0.68;;
24743;SDS011;12844;52.110;5.548;2022-10-16T13:02:21;1.48;;;0.70;;
24743;SDS011;12844;52.110;5.548;2022-10-16T13:10:19;1.40;;;0.70;;
24743;SDS011;12844;52.110;5.548;2022-10-16T13:16:28;1.10;;;0.70;;
24743;SDS011;12844;52.110;5.548;2022-10-16T13:18:46;1.50;;;0.70;;
24743;SDS011;12844;52.110;5.548;2022-10-16T13:21:40;1.60;;;0.80;;
24743;SDS011;12844;52.110;5.548;2022-10-16T13:24:25;1.38;;;0.60;;
24743;SDS011;12844;52.110;5.548;2022-10-16T13:29:48;2.05;;;0.70;;
24743;SDS011;12844;52.110;5.548;2022-10-16T13:32:20;1.95;;;0.80;;
24743;SDS011;12844;52.110;5.548;2022-10-16T13:34:48;1.67;;;0.70;;
24743;SDS011;12844;52.110;5.548;2022-10-16T13:37:17;1.67;;;0.80;;
24743;SDS011;12844;52.110;5.548;2022-10-16T13:39:45;1.63;;;0.80;;
24743;SDS011;12844;52.110;5.548;2022-10-16T13:42:18;1.45;;;0.63;;
24743;SDS011;12844;52.110;5.548;2022-10-16T13:44:50;1.80;;;0.80;;
24743;SDS011;12844;52.110;5.548;2022-10-16T13:47:23;1.20;;;0.70;;
24743;SDS011;12844;52.110;5.548;2022-10-16T13:50:00;1.33;;;0.68;;
24743;SDS011;12844;52.110;5.548;2022-10-16T13:52:28;1.92;;;0.80;;
24743;SDS011;12844;52.110;5.548;2022-10-16T13:54:54;1.17;;;0.70;;
24743;SDS011;12844;52.110;5.548;2022-10-16T13:57:21;1.50;;;0.65;;
24743;SDS011;12844;52.110;5.548;2022-10-16T13:59:49;1.17;;;0.60;;
24743;SDS011;12844;52.110;5.548;2022-10-16T14:04:51;1.30;;;0.60;;
24743;SDS011;12844;52.110;5.548;2022-10-16T14:07:23;1.08;;;0.70;;
24743;SDS011;12844;52.110;5.548;2022-10-16T14:09:51;0.70;;;0.50;;
24743;SDS011;12844;52.110;5.548;2022-10-16T14:12:17;1.42;;;0.70;;
24743;SDS011;12844;52.110;5.548;2022-10-16T14:14:44;1.60;;;0.60;;
24743;SDS011;12844;52.110;5.548;2022-10-16T14:17:13;1.30;;;0.70;;
24743;SDS011;12844;52.110;5.548;2022-10-16T14:19:49;1.02;;;0.70;;
24743;SDS011;12844;52.110;5.548;2022-10-16T14:24:54;1.20;;;0.70;;
24743;SDS011;12844;52.110;5.548;2022-10-16T14:27:28;1.40;;;0.70;;
24743;SDS011;12844;52.110;5.548;2022-10-16T14:32:33;1.40;;;0.68;;
24743;SDS011;12844;52.110;5.548;2022-10-16T14:34:59;1.55;;;0.70;;
24743;SDS011;12844;52.110;5.548;2022-10-16T14:37:25;1.10;;;0.73;;
24743;SDS011;12844;52.110;5.548;2022-10-16T14:39:53;1.70;;;0.70;;
24743;SDS011;12844;52.110;5.548;2022-10-16T14:42:21;1.58;;;0.63;;
24743;SDS011;12844;52.110;5.548;2022-10-16T14:44:49;1.63;;;0.70;;
24743;SDS011;12844;52.110;5.548;2022-10-16T14:47:20;2.05;;;0.70;;
24743;SDS011;12844;52.110;5.548;2022-10-16T14:49:50;1.35;;;0.63;;
24743;SDS011;12844;52.110;5.548;2022-10-16T14:52:16;1.27;;;0.70;;
24743;SDS011;12844;52.110;5.548;2022-10-16T14:54:41;1.13;;;0.65;;
24743;SDS011;12844;52.110;5.548;2022-10-16T14:57:42;1.50;;;0.60;;
24743;SDS011;12844;52.110;5.548;2022-10-16T15:00:00;1.48;;;0.57;;
24743;SDS011;12844;52.110;5.548;2022-10-16T15:02:31;1.25;;;0.65;;
24743;SDS011;12844;52.110;5.548;2022-10-16T15:05:07;1.08;;;0.60;;
24743;SDS011;12844;52.110;5.548;2022-10-16T15:07:38;1.20;;;0.50;;
24743;SDS011;12844;52.110;5.548;2022-10-16T15:10:04;0.60;;;0.50;;
24743;SDS011;12844;52.110;5.548;2022-10-16T15:12:30;1.17;;;0.63;;
24743;SDS011;12844;52.110;5.548;2022-10-16T15:14:55;1.73;;;0.73;;
24743;SDS011;12844;52.110;5.548;2022-10-16T15:17:21;1.20;;;0.60;;
24743;SDS011;12844;52.110;5.548;2022-10-16T15:19:46;0.88;;;0.60;;
24743;SDS011;12844;52.110;5.548;2022-10-16T15:22:12;1.17;;;0.60;;
24743;SDS011;12844;52.110;5.548;2022-10-16T15:24:37;0.70;;;0.52;;
24743;SDS011;12844;52.110;5.548;2022-10-16T15:27:03;1.73;;;0.70;;
24743;SDS011;12844;52.110;5.548;2022-10-16T15:29:28;0.70;;;0.60;;
24743;SDS011;12844;52.110;5.548;2022-10-16T15:31:54;1.40;;;0.70;;
24743;SDS011;12844;52.110;5.548;2022-10-16T15:34:19;1.00;;;0.60;;
24743;SDS011;12844;52.110;5.548;2022-10-16T15:36:45;1.27;;;0.70;;
24743;SDS011;12844;52.110;5.548;2022-10-16T15:39:14;0.98;;;0.55;;
24743;SDS011;12844;52.110;5.548;2022-10-16T15:41:42;1.42;;;0.55;;
24743;SDS011;12844;52.110;5.548;2022-10-16T15:44:08;1.10;;;0.60;;
24743;SDS011;12844;52.110;5.548;2022-10-16T15:46:33;1.20;;;0.40;;
24743;SDS011;12844;52.110;5.548;2022-10-16T15:48:59;1.50;;;0.70;;
24743;SDS011;12844;52.110;5.548;2022-10-16T15:51:25;1.30;;;0.60;;
24743;SDS011;12844;52.110;5.548;2022-10-16T15:53:58;1.17;;;0.43;;
24743;SDS011;12844;52.110;5.548;2022-10-16T15:56:26;0.60;;;0.50;;
24743;SDS011;12844;52.110;5.548;2022-10-16T15:58:53;1.40;;;0.57;;
24743;SDS011;12844;52.110;5.548;2022-10-16T16:01:19;1.38;;;0.50;;
24743;SDS011;12844;52.110;5.548;2022-10-16T16:03:46;1.10;;;0.55;;
24743;SDS011;12844;52.110;5.548;2022-10-16T16:06:12;1.08;;;0.63;;
24743;SDS011;12844;52.110;5.548;2022-10-16T16:08:38;1.20;;;0.70;;
24743;SDS011;12844;52.110;5.548;2022-10-16T16:11:05;1.30;;;0.70;;
24743;SDS011;12844;52.110;5.548;2022-10-16T16:13:33;0.77;;;0.50;;
24743;SDS011;12844;52.110;5.548;2022-10-16T16:15:58;1.70;;;0.60;;
24743;SDS011;12844;52.110;5.548;2022-10-16T16:18:24;1.30;;;0.70;;
24743;SDS011;12844;52.110;5.548;2022-10-16T16:20:50;0.88;;;0.52;;
24743;SDS011;12844;52.110;5.548;2022-10-16T16:23:17;1.27;;;0.70;;
24743;SDS011;12844;52.110;5.548;2022-10-16T16:25:44;1.13;;;0.70;;
24743;SDS011;12844;52.110;5.548;2022-10-16T16:28:10;1.70;;;0.70;;
24743;SDS011;12844;52.110;5.548;2022-10-16T16:30:39;1.15;;;0.70;;
24743;SDS011;12844;52.110;5.548;2022-10-16T16:33:05;1.05;;;0.60;;
24743;SDS011;12844;52.110;5.548;2022-10-16T16:35:31;1.85;;;0.60;;
24743;SDS011;12844;52.110;5.548;2022-10-16T16:37:56;1.05;;;0.70;;
24743;SDS011;12844;52.110;5.548;2022-10-16T16:40:22;1.00;;;0.60;;
24743;SDS011;12844;52.110;5.548;2022-10-16T16:42:48;0.75;;;0.55;;
24743;SDS011;12844;52.110;5.548;2022-10-16T16:45:14;1.70;;;0.70;;
24743;SDS011;12844;52.110;5.548;2022-10-16T16:47:39;0.88;;;0.60;;
24743;SDS011;12844;52.110;5.548;2022-10-16T16:50:05;1.30;;;0.60;;
24743;SDS011;12844;52.110;5.548;2022-10-16T16:52:31;2.30;;;0.57;;
24743;SDS011;12844;52.110;5.548;2022-10-16T16:54:57;1.63;;;0.60;;
24743;SDS011;12844;52.110;5.548;2022-10-16T16:57:23;1.60;;;0.60;;
24743;SDS011;12844;52.110;5.548;2022-10-16T16:59:49;1.17;;;0.60;;
24743;SDS011;12844;52.110;5.548;2022-10-16T17:02:16;2.10;;;0.70;;
24743;SDS011;12844;52.110;5.548;2022-10-16T17:04:42;1.27;;;0.73;;
24743;SDS011;12844;52.110;5.548;2022-10-16T17:07:07;1.48;;;0.73;;
24743;SDS011;12844;52.110;5.548;2022-10-16T17:09:33;0.88;;;0.70;;
24743;SDS011;12844;52.110;5.548;2022-10-16T17:11:58;1.48;;;0.60;;
24743;SDS011;12844;52.110;5.548;2022-10-16T17:14:24;0.88;;;0.57;;
24743;SDS011;12844;52.110;5.548;2022-10-16T17:16:51;0.93;;;0.63;;
24743;SDS011;12844;52.110;5.548;2022-10-16T17:19:17;1.20;;;0.60;;
24743;SDS011;12844;52.110;5.548;2022-10-16T17:21:44;1.63;;;0.68;;
24743;SDS011;12844;52.110;5.548;2022-10-16T17:24:10;1.60;;;0.77;;
24743;SDS011;12844;52.110;5.548;2022-10-16T17:26:36;1.00;;;0.70;;
24743;SDS011;12844;52.110;5.548;2022-10-16T17:29:02;1.10;;;0.65;;
24743;SDS011;12844;52.110;5.548;2022-10-16T17:31:35;0.82;;;0.50;;
24743;SDS011;12844;52.110;5.548;2022-10-16T17:34:02;1.92;;;0.80;;
24743;SDS011;12844;52.110;5.548;2022-10-16T17:36:31;1.30;;;0.73;;
24743;SDS011;12844;52.110;5.548;2022-10-16T17:38:59;1.67;;;0.60;;
24743;SDS011;12844;52.110;5.548;2022-10-16T17:41:28;1.38;;;0.60;;
24743;SDS011;12844;52.110;5.548;2022-10-16T17:43:54;1.33;;;0.63;;
24743;SDS011;12844;52.110;5.548;2022-10-16T17:46:20;1.13;;;0.70;;
24743;SDS011;12844;52.110;5.548;2022-10-16T17:48:48;1.05;;;0.60;;
24743;SDS011;12844;52.110;5.548;2022-10-16T17:51:16;1.52;;;0.80;;
24743;SDS011;12844;52.110;5.548;2022-10-16T17:53:46;1.75;;;0.70;;
24743;SDS011;12844;52.110;5.548;2022-10-16T17:56:16;1.20;;;0.60;;
24743;SDS011;12844;52.110;5.548;2022-10-16T17:58:42;0.95;;;0.60;;
24743;SDS011;12844;52.110;5.548;2022-10-16T18:01:19;1.92;;;0.68;;
24743;SDS011;12844;52.110;5.548;2022-10-16T18:03:49;1.25;;;0.70;;
24743;SDS011;12844;52.110;5.548;2022-10-16T18:06:16;1.02;;;0.60;;
24743;SDS011;12844;52.110;5.548;2022-10-16T18:08:42;1.48;;;0.75;;
24743;SDS011;12844;52.110;5.548;2022-10-16T18:11:08;1.50;;;0.60;;
24743;SDS011;12844;52.110;5.548;2022-10-16T18:13:34;1.33;;;0.70;;
24743;SDS011;12844;52.110;5.548;2022-10-16T18:16:03;1.27;;;0.70;;
24743;SDS011;12844;52.110;5.548;2022-10-16T18:18:31;1.63;;;0.70;;
24743;SDS011;12844;52.110;5.548;2022-10-16T18:20:57;1.08;;;0.65;;
24743;SDS011;12844;52.110;5.548;2022-10-16T18:23:24;1.17;;;0.50;;
24743;SDS011;12844;52.110;5.548;2022-10-16T18:25:50;1.30;;;0.68;;
24743;SDS011;12844;52.110;5.548;2022-10-16T18:28:16;1.48;;;0.80;;
24743;SDS011;12844;52.110;5.548;2022-10-16T18:30:41;1.45;;;0.70;;
24743;SDS011;12844;52.110;5.548;2022-10-16T18:33:07;1.52;;;0.60;;
24743;SDS011;12844;52.110;5.548;2022-10-16T18:35:35;1.77;;;0.90;;
24743;SDS011;12844;52.110;5.548;2022-10-16T18:38:01;1.00;;;0.57;;
24743;SDS011;12844;52.110;5.548;2022-10-16T18:40:27;1.27;;;0.80;;
24743;SDS011;12844;52.110;5.548;2022-10-16T18:42:53;1.35;;;0.60;;
24743;SDS011;12844;52.110;5.548;2022-10-16T18:45:19;1.60;;;0.90;;
24743;SDS011;12844;52.110;5.548;2022-10-16T18:47:45;0.77;;;0.73;;
24743;SDS011;12844;52.110;5.548;2022-10-16T18:50:11;1.63;;;0.77;;
24743;SDS011;12844;52.110;5.548;2022-10-16T18:52:37;1.45;;;0.90;;
24743;SDS011;12844;52.110;5.548;2022-10-16T18:55:04;1.50;;;0.65;;
24743;SDS011;12844;52.110;5.548;2022-10-16T18:57:30;1.70;;;0.77;;
24743;SDS011;12844;52.110;5.548;2022-10-16T18:59:55;1.35;;;0.77;;
24743;SDS011;12844;52.110;5.548;2022-10-16T19:02:21;1.25;;;0.70;;
24743;SDS011;12844;52.110;5.548;2022-10-16T19:04:47;1.60;;;0.85;;
24743;SDS011;12844;52.110;5.548;2022-10-16T19:07:12;1.85;;;0.90;;
24743;SDS011;12844;52.110;5.548;2022-10-16T19:09:40;1.88;;;0.90;;
24743;SDS011;12844;52.110;5.548;2022-10-16T19:12:06;1.23;;;0.70;;
24743;SDS011;12844;52.110;5.548;2022-10-16T19:14:32;1.90;;;0.90;;
24743;SDS011;12844;52.110;5.548;2022-10-16T19:16:58;1.77;;;0.80;;
24743;SDS011;12844;52.110;5.548;2022-10-16T19:19:24;1.65;;;0.80;;
24743;SDS011;12844;52.110;5.548;2022-10-16T19:21:50;1.45;;;0.90;;
24743;SDS011;12844;52.110;5.548;2022-10-16T19:24:22;1.45;;;0.90;;
24743;SDS011;12844;52.110;5.548;2022-10-16T19:26:48;0.95;;;0.70;;
24743;SDS011;12844;52.110;5.548;2022-10-16T19:29:14;1.08;;;0.80;;
24743;SDS011;12844;52.110;5.548;2022-10-16T19:31:39;1.63;;;0.80;;
24743;SDS011;12844;52.110;5.548;2022-10-16T19:34:05;1.45;;;0.77;;
24743;SDS011;12844;52.110;5.548;2022-10-16T19:36:35;1.17;;;0.70;;
24743;SDS011;12844;52.110;5.548;2022-10-16T19:39:11;1.63;;;0.90;;
24743;SDS011;12844;52.110;5.548;2022-10-16T19:41:38;1.83;;;0.80;;
24743;SDS011;12844;52.110;5.548;2022-10-16T19:44:05;1.33;;;0.90;;
24743;SDS011;12844;52.110;5.548;2022-10-16T19:46:32;1.30;;;0.90;;
24743;SDS011;12844;52.110;5.548;2022-10-16T19:48:59;1.70;;;0.98;;
24743;SDS011;12844;52.110;5.548;2022-10-16T19:51:26;2.15;;;0.80;;
24743;SDS011;12844;52.110;5.548;2022-10-16T19:53:54;1.40;;;0.88;;
24743;SDS011;12844;52.110;5.548;2022-10-16T19:56:22;1.52;;;0.93;;
24743;SDS011;12844;52.110;5.548;2022-10-16T19:58:49;1.13;;;0.70;;
24743;SDS011;12844;52.110;5.548;2022-10-16T20:01:16;1.23;;;0.80;;
24743;SDS011;12844;52.110;5.548;2022-10-16T20:03:42;2.03;;;0.70;;
24743;SDS011;12844;52.110;5.548;2022-10-16T20:06:10;1.95;;;0.95;;
24743;SDS011;12844;52.110;5.548;2022-10-16T20:08:36;1.65;;;0.80;;
24743;SDS011;12844;52.110;5.548;2022-10-16T20:11:03;2.63;;;0.80;;
24743;SDS011;12844;52.110;5.548;2022-10-16T20:13:31;2.47;;;1.08;;
24743;SDS011;12844;52.110;5.548;2022-10-16T20:15:57;3.05;;;0.80;;
24743;SDS011;12844;52.110;5.548;2022-10-16T20:18:23;5.03;;;1.40;;
24743;SDS011;12844;52.110;5.548;2022-10-16T20:20:48;1.98;;;0.90;;
24743;SDS011;12844;52.110;5.548;2022-10-16T20:23:18;6.28;;;1.10;;
24743;SDS011;12844;52.110;5.548;2022-10-16T20:25:44;2.05;;;1.00;;
24743;SDS011;12844;52.110;5.548;2022-10-16T20:28:10;2.97;;;1.00;;
24743;SDS011;12844;52.110;5.548;2022-10-16T20:30:40;2.47;;;0.90;;
24743;SDS011;12844;52.110;5.548;2022-10-16T20:33:07;2.63;;;1.13;;
24743;SDS011;12844;52.110;5.548;2022-10-16T20:35:37;2.00;;;1.00;;
24743;SDS011;12844;52.110;5.548;2022-10-16T20:38:11;2.45;;;0.90;;
24743;SDS011;12844;52.110;5.548;2022-10-16T20:40:38;2.08;;;1.08;;
24743;SDS011;12844;52.110;5.548;2022-10-16T20:43:06;1.50;;;0.90;;
24743;SDS011;12844;52.110;5.548;2022-10-16T20:45:35;2.90;;;1.10;;
24743;SDS011;12844;52.110;5.548;2022-10-16T20:48:00;2.08;;;1.10;;
24743;SDS011;12844;52.110;5.548;2022-10-16T20:50:30;2.80;;;1.25;;
24743;SDS011;12844;52.110;5.548;2022-10-16T20:52:56;2.10;;;1.02;;
24743;SDS011;12844;52.110;5.548;2022-10-16T20:55:22;1.85;;;1.00;;
24743;SDS011;12844;52.110;5.548;2022-10-16T20:57:48;2.72;;;1.20;;
24743;SDS011;12844;52.110;5.548;2022-10-16T21:00:14;1.98;;;1.00;;
24743;SDS011;12844;52.110;5.548;2022-10-16T21:02:40;3.88;;;1.10;;
24743;SDS011;12844;52.110;5.548;2022-10-16T21:05:06;1.98;;;1.10;;
24743;SDS011;12844;52.110;5.548;2022-10-16T21:07:32;1.95;;;0.98;;
24743;SDS011;12844;52.110;5.548;2022-10-16T21:09:57;2.53;;;1.02;;
24743;SDS011;12844;52.110;5.548;2022-10-16T21:12:23;2.50;;;1.38;;
24743;SDS011;12844;52.110;5.548;2022-10-16T21:14:49;2.47;;;1.13;;
24743;SDS011;12844;52.110;5.548;2022-10-16T21:17:15;2.22;;;1.02;;
24743;SDS011;12844;52.110;5.548;2022-10-16T21:19:41;2.40;;;1.20;;
24743;SDS011;12844;52.110;5.548;2022-10-16T21:22:06;2.08;;;1.20;;
24743;SDS011;12844;52.110;5.548;2022-10-16T21:24:32;4.18;;;1.20;;
24743;SDS011;12844;52.110;5.548;2022-10-16T21:26:58;2.85;;;1.10;;
24743;SDS011;12844;52.110;5.548;2022-10-16T21:29:23;1.90;;;0.90;;
24743;SDS011;12844;52.110;5.548;2022-10-16T21:31:49;2.28;;;1.00;;
24743;SDS011;12844;52.110;5.548;2022-10-16T21:34:14;5.70;;;1.10;;
24743;SDS011;12844;52.110;5.548;2022-10-16T21:36:40;3.40;;;1.13;;
24743;SDS011;12844;52.110;5.548;2022-10-16T21:39:13;1.73;;;1.00;;
24743;SDS011;12844;52.110;5.548;2022-10-16T21:41:41;2.08;;;1.13;;
24743;SDS011;12844;52.110;5.548;2022-10-16T21:44:07;2.70;;;1.20;;
24743;SDS011;12844;52.110;5.548;2022-10-16T21:46:34;1.60;;;1.05;;
24743;SDS011;12844;52.110;5.548;2022-10-16T21:49:02;2.53;;;0.98;;
24743;SDS011;12844;52.110;5.548;2022-10-16T21:51:36;3.85;;;0.98;;
24743;SDS011;12844;52.110;5.548;2022-10-16T21:54:05;2.20;;;1.10;;
24743;SDS011;12844;52.110;5.548;2022-10-16T21:56:32;2.05;;;1.02;;
24743;SDS011;12844;52.110;5.548;2022-10-16T21:58:57;1.42;;;0.93;;
24743;SDS011;12844;52.110;5.548;2022-10-16T22:01:24;3.70;;;1.30;;
24743;SDS011;12844;52.110;5.548;2022-10-16T22:03:51;2.40;;;1.17;;
24743;SDS011;12844;52.110;5.548;2022-10-16T22:06:18;2.20;;;1.10;;
24743;SDS011;12844;52.110;5.548;2022-10-16T22:08:46;1.88;;;1.00;;
24743;SDS011;12844;52.110;5.548;2022-10-16T22:11:14;2.85;;;1.17;;
24743;SDS011;12844;52.110;5.548;2022-10-16T22:13:41;1.92;;;1.20;;
24743;SDS011;12844;52.110;5.548;2022-10-16T22:16:07;3.28;;;1.13;;
24743;SDS011;12844;52.110;5.548;2022-10-16T22:18:34;3.67;;;1.25;;
24743;SDS011;12844;52.110;5.548;2022-10-16T22:21:00;1.60;;;1.20;;
24743;SDS011;12844;52.110;5.548;2022-10-16T22:23:27;2.63;;;1.25;;
24743;SDS011;12844;52.110;5.548;2022-10-16T22:25:57;2.15;;;0.98;;
24743;SDS011;12844;52.110;5.548;2022-10-16T22:28:24;2.50;;;1.20;;
24743;SDS011;12844;52.110;5.548;2022-10-16T22:30:49;1.65;;;1.10;;
24743;SDS011;12844;52.110;5.548;2022-10-16T22:33:15;1.27;;;1.00;;
24743;SDS011;12844;52.110;5.548;2022-10-16T22:35:40;1.92;;;1.00;;
24743;SDS011;12844;52.110;5.548;2022-10-16T22:38:06;1.50;;;1.20;;
24743;SDS011;12844;52.110;5.548;2022-10-16T22:40:33;2.08;;;1.10;;
24743;SDS011;12844;52.110;5.548;2022-10-16T22:42:59;2.28;;;1.20;;
24743;SDS011;12844;52.110;5.548;2022-10-16T22:45:27;2.10;;;1.00;;
24743;SDS011;12844;52.110;5.548;2022-10-16T22:47:56;2.22;;;1.02;;
24743;SDS011;12844;52.110;5.548;2022-10-16T22:50:22;1.58;;;1.13;;
24743;SDS011;12844;52.110;5.548;2022-10-16T22:52:48;1.38;;;0.90;;
24743;SDS011;12844;52.110;5.548;2022-10-16T22:55:14;1.88;;;1.08;;
24743;SDS011;12844;52.110;5.548;2022-10-16T22:57:40;2.15;;;1.10;;
24743;SDS011;12844;52.110;5.548;2022-10-16T23:00:06;2.83;;;1.10;;
24743;SDS011;12844;52.110;5.548;2022-10-16T23:02:34;1.98;;;1.10;;
24743;SDS011;12844;52.110;5.548;2022-10-16T23:04:59;2.28;;;1.20;;
24743;SDS011;12844;52.110;5.548;2022-10-16T23:07:25;1.48;;;1.10;;
24743;SDS011;12844;52.110;5.548;2022-10-16T23:09:50;2.03;;;0.88;;
24743;SDS011;12844;52.110;5.548;2022-10-16T23:12:16;2.75;;;1.10;;
24743;SDS011;12844;52.110;5.548;2022-10-16T23:14:45;1.38;;;0.82;;
24743;SDS011;12844;52.110;5.548;2022-10-16T23:17:11;3.08;;;1.17;;
24743;SDS011;12844;52.110;5.548;2022-10-16T23:19:37;2.53;;;1.00;;
24743;SDS011;12844;52.110;5.548;2022-10-16T23:22:02;1.65;;;1.05;;
24743;SDS011;12844;52.110;5.548;2022-10-16T23:24:29;1.52;;;1.00;;
24743;SDS011;12844;52.110;5.548;2022-10-16T23:26:55;1.67;;;1.20;;
24743;SDS011;12844;52.110;5.548;2022-10-16T23:29:20;2.55;;;1.05;;
24743;SDS011;12844;52.110;5.548;2022-10-16T23:31:46;1.42;;;1.00;;
24743;SDS011;12844;52.110;5.548;2022-10-16T23:34:11;2.33;;;1.20;;
24743;SDS011;12844;52.110;5.548;2022-10-16T23:36:37;2.40;;;1.20;;
24743;SDS011;12844;52.110;5.548;2022-10-16T23:39:02;3.78;;;1.20;;
24743;SDS011;12844;52.110;5.548;2022-10-16T23:41:28;1.60;;;1.10;;
24743;SDS011;12844;52.110;5.548;2022-10-16T23:43:53;1.83;;;1.10;;
24743;SDS011;12844;52.110;5.548;2022-10-16T23:46:19;1.17;;;0.82;;
24743;SDS011;12844;52.110;5.548;2022-10-16T23:48:45;1.25;;;1.00;;
24743;SDS011;12844;52.110;5.548;2022-10-16T23:51:10;1.25;;;0.95;;
24743;SDS011;12844;52.110;5.548;2022-10-16T23:53:36;1.95;;;1.25;;
24743;SDS011;12844;52.110;5.548;2022-10-16T23:56:03;3.72;;;1.10;;
24743;SDS011;12844;52.110;5.548;2022-10-16T23:58:29;2.10;;;1.00;;
